createdAt,value
2023-05-19T00:00:28.662Z,13.97
2023-05-19T00:02:56.283Z,14.00
2023-05-19T00:05:24.895Z,13.94
2023-05-19T00:07:52.648Z,14.09
2023-05-19T00:10:19.636Z,13.87
2023-05-19T00:12:47.126Z,13.79
2023-05-19T00:15:14.405Z,13.57
2023-05-19T00:17:42.459Z,13.43
2023-05-19T00:20:09.619Z,13.76
2023-05-19T00:22:37.009Z,13.41
2023-05-19T00:25:06.065Z,13.62
2023-05-19T00:27:32.710Z,13.65
2023-05-19T00:29:59.345Z,13.64
2023-05-19T00:32:26.067Z,13.54
2023-05-19T00:34:52.897Z,13.61
2023-05-19T00:37:19.489Z,13.49
2023-05-19T00:39:46.317Z,13.50
2023-05-19T00:42:13.059Z,13.60
2023-05-19T00:44:41.736Z,13.36
2023-05-19T00:47:08.870Z,13.45
2023-05-19T00:49:36.099Z,13.38
2023-05-19T00:52:03.371Z,13.43
2023-05-19T00:54:30.236Z,13.49
2023-05-19T00:56:58.419Z,13.24
2023-05-19T00:59:24.972Z,13.16
2023-05-19T01:01:52.176Z,12.99
2023-05-19T01:04:22.286Z,12.89
2023-05-19T01:06:55.383Z,13.21
2023-05-19T01:09:22.953Z,13.10
2023-05-19T01:11:53.435Z,13.02
2023-05-19T01:14:20.596Z,12.84
2023-05-19T01:16:58.394Z,12.91
2023-05-19T01:19:43.750Z,12.95
2023-05-19T01:22:43.160Z,12.85
2023-05-19T01:25:48.182Z,12.78
2023-05-19T01:28:32.431Z,12.62
2023-05-19T01:31:01.435Z,12.64
2023-05-19T01:33:30.966Z,12.72
2023-05-19T01:35:59.749Z,12.55
2023-05-19T01:38:28.512Z,12.64
2023-05-19T01:40:57.181Z,12.59
2023-05-19T01:43:26.381Z,12.65
2023-05-19T01:45:53.616Z,12.28
2023-05-19T01:48:21.178Z,12.42
2023-05-19T01:50:47.819Z,12.64
2023-05-19T01:53:15.545Z,12.72
2023-05-19T01:55:49.552Z,12.51
2023-05-19T01:58:46.827Z,12.45
2023-05-19T02:01:45.129Z,12.57
2023-05-19T02:04:29.192Z,12.26
2023-05-19T02:07:25.665Z,12.51
2023-05-19T02:10:06.677Z,12.24
2023-05-19T02:12:37.712Z,12.26
2023-05-19T02:15:07.818Z,12.46
2023-05-19T02:17:38.010Z,12.22
2023-05-19T02:20:05.355Z,12.46
2023-05-19T02:22:32.038Z,12.28
2023-05-19T02:24:58.823Z,12.60
2023-05-19T02:27:26.263Z,12.62
2023-05-19T02:29:53.080Z,12.44
2023-05-19T02:32:21.077Z,12.37
2023-05-19T02:34:47.970Z,12.41
2023-05-19T02:37:17.843Z,12.38
2023-05-19T02:39:44.513Z,11.93
2023-05-19T02:42:12.333Z,12.12
2023-05-19T02:44:39.339Z,12.28
2023-05-19T02:47:06.064Z,11.73
2023-05-19T02:49:36.238Z,12.06
2023-05-19T02:52:03.960Z,12.45
2023-05-19T02:54:31.532Z,12.43
2023-05-19T02:56:58.470Z,12.33
2023-05-19T02:59:25.784Z,12.34
2023-05-19T03:01:55.779Z,11.99
2023-05-19T03:04:22.412Z,11.85
2023-05-19T03:06:49.144Z,11.91
2023-05-19T03:09:15.841Z,12.05
2023-05-19T03:11:42.492Z,11.97
2023-05-19T03:14:09.556Z,11.91
2023-05-19T03:16:36.316Z,12.08
2023-05-19T03:19:03.342Z,11.98
2023-05-19T03:21:30.414Z,11.80
2023-05-19T03:23:57.033Z,11.62
2023-05-19T03:26:24.533Z,11.78
2023-05-19T03:28:51.386Z,12.00
2023-05-19T03:31:18.566Z,12.00
2023-05-19T03:33:45.250Z,11.79
2023-05-19T03:36:12.651Z,12.05
2023-05-19T03:38:39.420Z,12.09
2023-05-19T03:41:05.999Z,11.72
2023-05-19T03:43:32.857Z,11.89
2023-05-19T03:45:59.578Z,11.78
2023-05-19T03:48:27.209Z,12.09
2023-05-19T03:50:54.397Z,11.86
2023-05-19T03:53:21.051Z,12.07
2023-05-19T03:55:49.589Z,12.03
2023-05-19T03:58:16.389Z,12.11
2023-05-19T04:00:42.986Z,12.17
2023-05-19T04:03:09.872Z,12.43
2023-05-19T04:05:36.623Z,11.80
2023-05-19T04:08:03.535Z,12.16
2023-05-19T04:10:30.439Z,12.08
2023-05-19T04:12:57.179Z,12.18
2023-05-19T04:15:23.846Z,11.93
2023-05-19T04:17:50.561Z,11.82
2023-05-19T04:20:17.197Z,12.06
2023-05-19T04:22:43.736Z,12.22
2023-05-19T04:25:10.371Z,12.38
2023-05-19T04:27:38.858Z,12.32
2023-05-19T04:30:06.602Z,12.25
2023-05-19T04:32:34.895Z,12.43
2023-05-19T04:35:03.286Z,12.45
2023-05-19T04:37:30.258Z,12.69
2023-05-19T04:39:57.134Z,12.66
2023-05-19T04:42:26.141Z,12.56
2023-05-19T04:44:52.934Z,12.71
2023-05-19T04:47:21.717Z,12.57
2023-05-19T04:49:48.402Z,12.76
2023-05-19T04:52:16.012Z,12.68
2023-05-19T04:54:44.242Z,12.92
2023-05-19T04:57:12.991Z,12.99
2023-05-19T04:59:39.623Z,12.48
2023-05-19T05:02:06.740Z,12.80
2023-05-19T05:04:33.646Z,12.63
2023-05-19T05:07:00.643Z,12.71
2023-05-19T05:09:27.319Z,12.31
2023-05-19T05:11:54.272Z,12.77
2023-05-19T05:14:21.071Z,13.26
2023-05-19T05:16:48.434Z,13.37
2023-05-19T05:19:15.493Z,13.45
2023-05-19T05:21:43.215Z,13.89
2023-05-19T05:24:10.911Z,14.55
2023-05-19T05:26:38.588Z,14.46
2023-05-19T05:29:05.529Z,14.13
2023-05-19T05:31:32.140Z,14.37
2023-05-19T05:33:58.916Z,14.69
2023-05-19T05:36:25.941Z,15.06
2023-05-19T05:38:52.775Z,14.81
2023-05-19T05:41:19.399Z,14.81
2023-05-19T05:43:45.955Z,14.97
2023-05-19T05:46:12.861Z,14.92
2023-05-19T05:48:42.218Z,15.11
2023-05-19T05:51:09.357Z,15.44
2023-05-19T05:53:43.182Z,15.61
2023-05-19T05:56:11.343Z,15.46
2023-05-19T05:58:40.916Z,15.51
2023-05-19T06:01:11.242Z,16.21
2023-05-19T06:03:40.160Z,17.11
2023-05-19T06:06:07.162Z,16.59
2023-05-19T06:08:33.819Z,17.06
2023-05-19T06:11:00.506Z,18.13
2023-05-19T06:13:27.146Z,17.19
2023-05-19T06:15:54.178Z,17.75
2023-05-19T06:18:21.020Z,18.36
2023-05-19T06:20:47.750Z,18.50
2023-05-19T06:23:14.868Z,18.06
2023-05-19T06:25:41.528Z,18.80
2023-05-19T06:28:08.182Z,19.24
2023-05-19T06:30:35.104Z,19.07
2023-05-19T06:33:03.367Z,19.59
2023-05-19T06:35:30.571Z,19.02
2023-05-19T06:37:57.385Z,19.45
2023-05-19T06:40:24.403Z,18.36
2023-05-19T06:42:51.014Z,18.58
2023-05-19T06:45:21.856Z,18.60
2023-05-19T06:47:49.042Z,18.15
2023-05-19T06:50:15.882Z,18.37
2023-05-19T06:52:42.695Z,18.44
2023-05-19T06:55:09.671Z,19.24
2023-05-19T06:57:36.537Z,18.90
2023-05-19T07:00:05.114Z,19.84
2023-05-19T07:02:32.266Z,20.43
2023-05-19T07:04:59.140Z,20.03
2023-05-19T07:07:26.702Z,20.65
2023-05-19T07:09:53.410Z,20.95
2023-05-19T07:12:20.109Z,21.21
2023-05-19T07:14:46.853Z,20.37
2023-05-19T07:17:13.491Z,20.06
2023-05-19T07:19:40.094Z,20.59
2023-05-19T07:22:06.717Z,21.63
2023-05-19T07:24:33.265Z,21.96
2023-05-19T07:26:59.892Z,22.55
2023-05-19T07:29:26.579Z,21.81
2023-05-19T07:31:57.641Z,21.99
2023-05-19T07:34:24.926Z,21.52
2023-05-19T07:36:52.273Z,21.42
2023-05-19T07:39:19.507Z,21.14
2023-05-19T07:41:52.597Z,20.21
2023-05-19T07:44:19.389Z,20.69
2023-05-19T07:46:46.523Z,21.51
2023-05-19T07:49:13.362Z,22.33
2023-05-19T07:51:41.799Z,23.04
2023-05-19T07:54:08.799Z,22.23
2023-05-19T07:56:35.555Z,22.35
2023-05-19T07:59:03.745Z,22.88
2023-05-19T08:01:30.861Z,22.86
2023-05-19T08:03:57.880Z,23.09
2023-05-19T08:06:25.401Z,23.24
2023-05-19T08:08:52.513Z,22.80
2023-05-19T08:11:19.046Z,23.43
2023-05-19T08:13:48.716Z,23.23
2023-05-19T08:16:16.072Z,23.75
2023-05-19T08:18:44.065Z,23.33
2023-05-19T08:21:11.767Z,25.14
2023-05-19T08:23:39.201Z,24.34
2023-05-19T08:26:05.850Z,24.34
2023-05-19T08:28:32.586Z,25.15
2023-05-19T08:30:59.646Z,25.97
2023-05-19T08:33:26.360Z,25.73
2023-05-19T08:35:53.044Z,25.71
2023-05-19T08:38:19.913Z,25.89
2023-05-19T08:40:48.365Z,26.67
2023-05-19T08:43:14.974Z,26.60
2023-05-19T08:45:48.285Z,26.59
2023-05-19T08:48:17.415Z,27.57
2023-05-19T08:50:51.874Z,27.18
2023-05-19T08:53:33.142Z,27.52
2023-05-19T08:56:04.168Z,27.22
2023-05-19T08:58:32.191Z,27.34
2023-05-19T09:01:00.260Z,27.60
2023-05-19T09:03:29.213Z,27.77
2023-05-19T09:05:56.260Z,28.23
2023-05-19T09:08:23.081Z,28.08
2023-05-19T09:10:49.676Z,27.46
2023-05-19T09:13:16.484Z,25.56
2023-05-19T09:15:44.628Z,27.30
2023-05-19T09:18:13.037Z,28.16
2023-05-19T09:20:41.522Z,28.11
2023-05-19T09:23:13.701Z,28.59
2023-05-19T09:25:51.147Z,29.41
2023-05-19T09:28:29.606Z,28.39
2023-05-19T09:31:22.667Z,28.25
2023-05-19T09:33:53.320Z,28.77
2023-05-19T09:36:20.001Z,29.96
2023-05-19T09:38:46.606Z,29.33
2023-05-19T09:41:14.963Z,26.76
2023-05-19T09:43:41.846Z,27.82
2023-05-19T09:46:13.728Z,27.86
2023-05-19T09:48:41.442Z,26.87
2023-05-19T09:51:10.750Z,28.30
2023-05-19T09:53:39.146Z,26.90
2023-05-19T09:56:09.003Z,28.88
2023-05-19T09:58:36.326Z,29.28
2023-05-19T10:01:06.386Z,28.33
2023-05-19T10:03:35.450Z,27.68
2023-05-19T10:06:06.716Z,26.78
2023-05-19T10:08:34.913Z,26.87
2023-05-19T10:11:02.047Z,25.92
2023-05-19T10:13:30.725Z,26.20
2023-05-19T10:15:59.666Z,25.22
2023-05-19T10:18:30.176Z,24.73
2023-05-19T10:20:57.947Z,25.40
2023-05-19T10:23:25.500Z,25.81
2023-05-19T10:25:55.350Z,24.64
2023-05-19T10:28:25.397Z,26.86
2023-05-19T10:30:56.010Z,28.11
2023-05-19T10:33:34.045Z,28.68
2023-05-19T10:36:31.198Z,28.25
2023-05-19T10:39:07.737Z,27.36
2023-05-19T10:41:51.815Z,27.26
2023-05-19T10:44:57.231Z,26.77
2023-05-19T10:47:25.725Z,28.08
2023-05-19T10:49:53.949Z,25.84
2023-05-19T10:52:22.299Z,26.10
2023-05-19T10:54:48.957Z,25.93
2023-05-19T10:57:19.559Z,26.12
2023-05-19T10:59:46.541Z,25.83
2023-05-19T11:02:40.290Z,25.43
2023-05-19T11:05:19.073Z,25.71
2023-05-19T11:07:56.235Z,25.70
2023-05-19T11:10:24.164Z,24.86
2023-05-19T11:12:52.240Z,24.94
2023-05-19T11:15:24.061Z,25.80
2023-05-19T11:17:51.363Z,25.77
2023-05-19T11:20:29.497Z,26.33
2023-05-19T11:23:05.149Z,26.30
2023-05-19T11:25:43.141Z,25.82
2023-05-19T11:28:15.590Z,26.35
2023-05-19T11:30:44.099Z,26.26
2023-05-19T11:33:11.252Z,26.27
2023-05-19T11:35:38.784Z,26.58
2023-05-19T11:38:07.207Z,25.63
2023-05-19T11:40:33.888Z,26.15
2023-05-19T11:43:01.858Z,25.81
2023-05-19T11:45:31.531Z,25.23
2023-05-19T11:48:02.104Z,26.11
2023-05-19T11:50:31.281Z,24.70
2023-05-19T11:53:00.272Z,25.73
2023-05-19T11:55:27.225Z,25.48
2023-05-19T12:00:31.590Z,25.28
2023-05-19T12:02:59.253Z,24.99
2023-05-19T12:05:27.227Z,25.71
2023-05-19T12:07:54.672Z,26.58
2023-05-19T12:10:31.404Z,26.18
2023-05-19T12:12:59.941Z,26.56
2023-05-19T12:15:26.686Z,26.20
2023-05-19T12:17:58.896Z,25.79
2023-05-19T12:20:27.565Z,25.62
2023-05-19T12:22:55.896Z,25.78
2023-05-19T12:25:23.312Z,25.00
2023-05-19T12:27:52.855Z,25.06
2023-05-19T12:30:26.514Z,25.78
2023-05-19T12:32:54.808Z,25.84
2023-05-19T12:35:24.003Z,25.72
2023-05-19T12:37:51.825Z,25.92
2023-05-19T12:40:18.487Z,26.42
2023-05-19T12:42:45.467Z,24.91
2023-05-19T12:45:12.233Z,24.44
2023-05-19T12:47:39.018Z,24.58
2023-05-19T12:50:08.602Z,24.54
2023-05-19T12:52:48.152Z,25.56
2023-05-19T12:55:16.550Z,25.40
2023-05-19T12:57:45.162Z,26.00
2023-05-19T13:00:25.459Z,25.22
2023-05-19T13:02:55.792Z,25.97
2023-05-19T13:05:23.848Z,25.76
2023-05-19T13:07:55.525Z,26.54
2023-05-19T13:10:22.614Z,26.76
2023-05-19T13:12:49.234Z,26.98
2023-05-19T13:15:16.152Z,26.44
2023-05-19T13:17:43.233Z,26.56
2023-05-19T13:20:12.032Z,25.42
2023-05-19T13:22:38.688Z,25.78
2023-05-19T13:25:06.268Z,25.90
2023-05-19T13:27:33.054Z,26.26
2023-05-19T13:29:59.801Z,26.25
2023-05-19T13:32:26.382Z,26.32
2023-05-19T13:34:52.956Z,25.53
2023-05-19T13:37:19.806Z,25.60
2023-05-19T13:39:46.406Z,24.96
2023-05-19T13:42:13.066Z,25.84
2023-05-19T13:44:40.765Z,26.54
2023-05-19T13:47:07.391Z,26.66
2023-05-19T13:49:34.065Z,26.53
2023-05-19T13:52:00.777Z,26.65
2023-05-19T13:54:27.779Z,26.51
2023-05-19T13:56:54.822Z,26.50
2023-05-19T13:59:21.976Z,25.54
2023-05-19T14:01:48.730Z,25.43
2023-05-19T14:04:17.490Z,26.01
2023-05-19T14:06:45.193Z,25.76
2023-05-19T14:09:12.439Z,25.68
2023-05-19T14:11:39.184Z,25.56
2023-05-19T14:14:05.814Z,25.73
2023-05-19T14:16:33.047Z,26.15
2023-05-19T14:18:59.835Z,25.71
2023-05-19T14:21:27.271Z,24.99
2023-05-19T14:23:53.979Z,25.91
2023-05-19T14:26:22.048Z,25.71
2023-05-19T14:28:48.869Z,25.34
2023-05-19T14:31:15.905Z,25.54
2023-05-19T14:33:43.131Z,25.12
2023-05-19T14:36:10.580Z,25.02
2023-05-19T14:38:37.357Z,25.18
2023-05-19T14:41:04.124Z,24.70
2023-05-19T14:43:31.073Z,25.02
2023-05-19T14:45:57.836Z,24.80
2023-05-19T14:48:24.478Z,23.76
2023-05-19T14:50:51.088Z,24.50
2023-05-19T14:53:17.757Z,24.51
2023-05-19T14:55:44.504Z,24.51
2023-05-19T14:58:27.006Z,24.48
2023-05-19T15:00:54.736Z,25.03
2023-05-19T15:03:23.413Z,24.06
2023-05-19T15:05:50.309Z,24.60
2023-05-19T15:08:17.089Z,24.74
2023-05-19T15:10:43.771Z,24.66
2023-05-19T15:13:11.886Z,25.06
2023-05-19T15:15:38.913Z,24.52
2023-05-19T15:18:05.636Z,24.28
2023-05-19T15:20:32.332Z,24.07
2023-05-19T15:22:59.038Z,24.08
2023-05-19T15:25:25.744Z,23.96
2023-05-19T15:27:52.342Z,24.02
2023-05-19T15:30:19.016Z,24.27
2023-05-19T15:32:45.882Z,23.33
2023-05-19T15:35:12.608Z,23.41
2023-05-19T15:37:39.250Z,23.30
2023-05-19T15:40:06.703Z,23.91
2023-05-19T15:42:33.354Z,23.59
2023-05-19T15:45:00.321Z,23.39
2023-05-19T15:47:27.002Z,24.33
2023-05-19T15:49:53.579Z,23.94
2023-05-19T15:52:20.197Z,24.24
2023-05-19T15:54:48.591Z,24.01
2023-05-19T15:57:15.221Z,23.67
2023-05-19T15:59:41.929Z,23.77
2023-05-19T16:02:10.007Z,23.69
2023-05-19T16:04:37.820Z,23.22
2023-05-19T16:07:04.557Z,23.80
2023-05-19T16:09:31.309Z,23.41
2023-05-19T16:12:00.994Z,23.38
2023-05-19T16:14:31.051Z,23.31
2023-05-19T16:16:57.733Z,23.34
2023-05-19T16:19:24.784Z,23.23
2023-05-19T16:21:51.562Z,22.99
2023-05-19T16:24:18.179Z,23.38
2023-05-19T16:26:44.758Z,23.08
2023-05-19T16:29:11.284Z,23.27
2023-05-19T16:31:37.877Z,23.24
2023-05-19T16:34:04.494Z,23.01
2023-05-19T16:36:31.960Z,23.13
2023-05-19T16:38:58.599Z,22.71
2023-05-19T16:41:26.545Z,22.72
2023-05-19T16:43:53.363Z,22.54
2023-05-19T16:46:20.048Z,22.66
2023-05-19T16:48:46.810Z,22.97
2023-05-19T16:51:13.401Z,22.61
2023-05-19T16:53:40.077Z,22.68
2023-05-19T16:56:08.049Z,22.30
2023-05-19T16:58:34.912Z,22.24
2023-05-19T17:01:01.635Z,22.66
2023-05-19T17:03:28.443Z,22.16
2023-05-19T17:05:55.383Z,22.36
2023-05-19T17:08:22.217Z,22.63
2023-05-19T17:10:48.770Z,22.34
2023-05-19T17:13:15.774Z,22.45
2023-05-19T17:15:43.457Z,22.48
2023-05-19T17:18:12.917Z,22.16
2023-05-19T17:20:39.645Z,22.18
2023-05-19T17:23:06.586Z,22.17
2023-05-19T17:25:33.647Z,22.01
2023-05-19T17:28:00.602Z,21.70
2023-05-19T17:30:27.212Z,21.71
2023-05-19T17:32:54.084Z,21.81
2023-05-19T17:35:20.790Z,21.77
2023-05-19T17:37:48.082Z,22.03
2023-05-19T17:40:14.696Z,21.95
2023-05-19T17:42:41.392Z,21.82
2023-05-19T17:45:12.017Z,22.17
2023-05-19T17:47:38.876Z,22.15
2023-05-19T17:50:06.202Z,21.87
2023-05-19T17:52:33.478Z,21.74
2023-05-19T17:55:00.535Z,21.73
2023-05-19T17:57:31.078Z,21.68
2023-05-19T17:59:58.426Z,21.56
2023-05-19T18:02:26.857Z,21.23
2023-05-19T18:04:54.131Z,21.17
2023-05-19T18:07:22.329Z,21.14
2023-05-19T18:09:51.248Z,21.24
2023-05-19T18:12:17.984Z,21.30
2023-05-19T18:14:44.695Z,21.09
2023-05-19T18:17:11.341Z,20.99
2023-05-19T18:19:38.339Z,21.20
2023-05-19T18:22:05.393Z,21.08
2023-05-19T18:24:32.015Z,21.31
2023-05-19T18:26:58.774Z,21.02
2023-05-19T18:29:25.344Z,21.11
2023-05-19T18:31:52.050Z,21.14
2023-05-19T18:34:19.117Z,21.00
2023-05-19T18:36:45.774Z,20.97
2023-05-19T18:39:12.444Z,21.10
2023-05-19T18:41:42.611Z,20.70
2023-05-19T18:44:09.228Z,20.76
2023-05-19T18:46:35.911Z,20.97
2023-05-19T18:49:03.787Z,20.92
2023-05-19T18:51:31.442Z,20.54
2023-05-19T18:53:58.088Z,20.49
2023-05-19T18:56:26.320Z,20.53
2023-05-19T18:58:54.259Z,20.40
2023-05-19T19:01:21.174Z,20.54
2023-05-19T19:03:49.203Z,20.47
2023-05-19T19:06:20.806Z,20.51
2023-05-19T19:08:47.591Z,20.68
2023-05-19T19:11:15.193Z,20.42
2023-05-19T19:13:42.007Z,20.46
2023-05-19T19:16:08.708Z,20.22
2023-05-19T19:18:36.712Z,20.41
2023-05-19T19:21:05.684Z,19.71
2023-05-19T19:23:32.894Z,19.93
2023-05-19T19:25:59.970Z,20.23
2023-05-19T19:28:26.835Z,20.08
2023-05-19T19:30:53.451Z,20.29
2023-05-19T19:33:20.293Z,20.36
2023-05-19T19:35:47.156Z,20.47
2023-05-19T19:38:14.185Z,19.82
2023-05-19T19:40:40.808Z,19.80
2023-05-19T19:43:07.449Z,20.17
2023-05-19T19:45:34.991Z,20.03
2023-05-19T19:48:01.803Z,19.85
2023-05-19T19:50:28.652Z,20.02
2023-05-19T19:52:55.402Z,19.84
2023-05-19T19:55:21.979Z,19.87
2023-05-19T19:57:49.577Z,20.24
2023-05-19T20:00:16.770Z,19.84
2023-05-19T20:03:02.652Z,19.61
2023-05-19T20:05:30.151Z,19.65
2023-05-19T20:07:56.997Z,19.56
2023-05-19T20:10:23.829Z,19.63
2023-05-19T20:12:50.550Z,19.48
2023-05-19T20:15:17.456Z,19.51
2023-05-19T20:17:44.355Z,19.14
2023-05-19T20:20:12.481Z,19.25
2023-05-19T20:22:39.532Z,19.42
2023-05-19T20:25:06.617Z,19.19
2023-05-19T20:27:33.245Z,19.40
2023-05-19T20:30:00.139Z,19.39
2023-05-19T20:32:26.949Z,19.29
2023-05-19T20:34:53.582Z,19.23
2023-05-19T20:37:21.627Z,19.30
2023-05-19T20:39:48.236Z,19.02
2023-05-19T20:42:15.125Z,19.05
2023-05-19T20:44:42.066Z,19.26
2023-05-19T20:47:10.560Z,18.98
2023-05-19T20:49:37.222Z,18.84
2023-05-19T20:52:04.142Z,18.96
2023-05-19T20:54:30.780Z,18.43
2023-05-19T20:56:57.385Z,18.28
2023-05-19T20:59:23.942Z,18.36
2023-05-19T21:01:50.639Z,18.75
2023-05-19T21:04:17.385Z,18.20
2023-05-19T21:06:44.084Z,18.48
2023-05-19T21:09:10.796Z,18.30
2023-05-19T21:11:37.660Z,18.50
2023-05-19T21:14:04.726Z,18.12
2023-05-19T21:16:32.175Z,18.18
2023-05-19T21:18:59.103Z,18.14
2023-05-19T21:21:26.114Z,18.11
2023-05-19T21:23:52.792Z,17.92
2023-05-19T21:26:19.520Z,18.11
2023-05-19T21:28:46.227Z,17.75
2023-05-19T21:31:12.854Z,18.13
2023-05-19T21:33:39.658Z,17.89
2023-05-19T21:36:06.645Z,17.84
2023-05-19T21:38:33.220Z,17.93
2023-05-19T21:40:59.827Z,17.72
2023-05-19T21:43:26.540Z,17.68
2023-05-19T21:45:53.110Z,17.67
2023-05-19T21:48:19.822Z,17.61
2023-05-19T21:50:46.487Z,17.64
2023-05-19T21:53:13.042Z,17.70
2023-05-19T21:55:39.698Z,17.85
2023-05-19T21:58:06.535Z,17.61
2023-05-19T22:00:33.536Z,17.65
2023-05-19T22:03:00.418Z,17.64
2023-05-19T22:05:29.578Z,17.56
2023-05-19T22:07:56.391Z,17.48
2023-05-19T22:10:23.201Z,17.50
2023-05-19T22:12:49.875Z,17.58
2023-05-19T22:15:16.487Z,17.43
2023-05-19T22:17:43.227Z,17.74
2023-05-19T22:20:10.366Z,17.80
2023-05-19T22:22:37.014Z,17.70
2023-05-19T22:25:04.008Z,17.50
2023-05-19T22:27:30.689Z,17.48
2023-05-19T22:29:59.524Z,17.44
2023-05-19T22:32:26.175Z,17.44
2023-05-19T22:34:53.029Z,17.45
2023-05-19T22:37:22.460Z,17.57
2023-05-19T22:39:49.001Z,17.49
2023-05-19T22:42:15.632Z,17.46
2023-05-19T22:44:43.425Z,17.32
2023-05-19T22:47:14.398Z,17.19
2023-05-19T22:49:42.211Z,17.42
2023-05-19T22:52:10.665Z,17.55
2023-05-19T22:54:37.913Z,17.36
2023-05-19T22:57:05.229Z,17.35
2023-05-19T22:59:32.349Z,17.32
2023-05-19T23:02:01.124Z,17.28
2023-05-19T23:04:27.902Z,17.27
2023-05-19T23:06:54.959Z,17.32
2023-05-19T23:09:21.920Z,17.36
2023-05-19T23:11:48.673Z,17.43
2023-05-19T23:14:15.335Z,17.44
2023-05-19T23:16:41.915Z,17.39
2023-05-19T23:19:08.554Z,17.10
2023-05-19T23:21:35.492Z,17.39
2023-05-19T23:24:02.164Z,17.46
2023-05-19T23:26:28.967Z,17.40
2023-05-19T23:28:55.968Z,17.45
2023-05-19T23:31:22.889Z,17.26
2023-05-19T23:33:51.057Z,16.99
2023-05-19T23:36:19.126Z,17.09
2023-05-19T23:38:46.065Z,17.20
2023-05-19T23:41:12.978Z,17.16
2023-05-19T23:43:39.990Z,17.11
2023-05-19T23:46:06.778Z,16.61
2023-05-19T23:48:35.696Z,16.61
2023-05-19T23:51:02.384Z,16.45
2023-05-19T23:53:28.962Z,16.64
2023-05-19T23:55:57.943Z,16.70
2023-05-19T23:58:25.605Z,16.86
